Time,TemperatureF,DewpointF,PressureIn,WindDirection,WindDirectionDegrees,WindSpeedMPH,WindSpeedGustMPH,Humidity,HourlyPrecipIn,Conditions,Clouds,dailyrainin,SoftwareType,DateUTC
2013-01-10 00:03:00,54.0,53.0,30.37,West,265,0.0,0.0,96,0.00,,,0.01,,2013-01-10 05:03:00,
2013-01-10 00:12:00,54.0,53.0,30.37,West,265,0.0,0.0,96,0.00,,,0.01,,2013-01-10 05:12:00,
2013-01-10 00:22:00,53.0,52.0,30.38,WNW,299,0.0,12.0,96,0.00,,,0.01,,2013-01-10 05:22:00,
2013-01-10 00:33:00,53.0,52.0,30.38,WNW,299,0.0,0.0,96,0.00,,,0.01,,2013-01-10 05:33:00,
2013-01-10 00:42:00,53.0,52.0,30.38,WNW,299,0.0,0.0,96,0.00,,,0.01,,2013-01-10 05:42:00,
2013-01-10 00:53:00,53.0,52.0,30.39,WNW,299,0.0,12.0,98,0.00,,,0.01,,2013-01-10 05:53:00,
2013-01-10 01:02:00,53.0,52.0,30.39,WNW,299,0.0,12.0,98,0.00,,,0.01,,2013-01-10 06:02:00,
2013-01-10 01:12:00,53.0,52.0,30.39,WNW,299,0.0,12.0,98,0.00,,,0.01,,2013-01-10 06:12:00,
2013-01-10 01:22:00,52.0,52.0,30.39,WNW,296,1.0,12.0,99,0.00,,,0.01,,2013-01-10 06:22:00,
2013-01-10 01:32:00,52.0,52.0,30.39,WNW,296,1.0,12.0,99,0.00,,,0.01,,2013-01-10 06:32:00,
2013-01-10 01:42:00,52.0,52.0,30.39,WNW,296,1.0,12.0,99,0.00,,,0.01,,2013-01-10 06:42:00,
2013-01-10 01:50:00,51.0,51.0,30.40,WNW,291,0.0,12.0,99,0.00,,,0.01,,2013-01-10 06:50:00,
2013-01-10 01:52:00,52.0,52.0,30.39,West,278,1.0,0.0,99,0.00,,,0.01,,2013-01-10 06:52:00,
2013-01-10 02:02:00,51.0,51.0,30.40,WNW,291,0.0,12.0,99,0.00,,,0.01,,2013-01-10 07:02:00,
2013-01-10 02:12:00,51.0,51.0,30.40,WNW,291,0.0,12.0,99,0.00,,,0.01,,2013-01-10 07:12:00,
2013-01-10 02:22:00,51.0,51.0,30.40,WNW,291,0.0,12.0,99,0.00,,,0.01,,2013-01-10 07:22:00,
2013-01-10 02:32:00,51.0,51.0,30.40,WNW,291,0.0,12.0,99,0.00,,,0.01,,2013-01-10 07:32:00,
2013-01-10 02:42:00,51.0,51.0,30.40,WNW,291,0.0,12.0,99,0.00,,,0.01,,2013-01-10 07:42:00,
2013-01-10 03:33:00,49.0,49.0,30.42,WNW,291,0.0,0.0,99,0.00,,,0.01,,2013-01-10 08:33:00,
2013-01-10 03:42:00,49.0,49.0,30.42,WNW,291,0.0,0.0,99,0.00,,,0.01,,2013-01-10 08:42:00,
2013-01-10 03:53:00,49.0,49.0,30.43,WNW,291,0.0,0.0,99,0.00,,,0.01,,2013-01-10 08:53:00,
2013-01-10 04:02:00,49.0,49.0,30.44,WNW,291,0.0,12.0,99,0.00,,,0.01,,2013-01-10 09:02:00,
2013-01-10 04:12:00,49.0,49.0,30.44,WNW,291,0.0,12.0,99,0.00,,,0.01,,2013-01-10 09:12:00,
2013-01-10 04:22:00,49.0,49.0,30.44,WNW,291,0.0,0.0,99,0.00,,,0.01,,2013-01-10 09:22:00,
2013-01-10 04:32:00,49.0,49.0,30.44,WNW,291,0.0,0.0,99,0.00,,,0.01,,2013-01-10 09:32:00,
2013-01-10 04:42:00,49.0,49.0,30.44,WNW,291,0.0,0.0,99,0.00,,,0.01,,2013-01-10 09:42:00,
2013-01-10 04:52:00,48.0,48.0,30.45,WNW,291,0.0,0.0,99,0.00,,,0.01,,2013-01-10 09:52:00,
2013-01-10 05:02:00,47.0,47.0,30.45,WNW,291,0.0,0.0,99,0.00,,,0.01,,2013-01-10 10:02:00,
2013-01-10 05:03:00,48.0,48.0,30.45,WNW,291,0.0,0.0,99,0.00,,,0.01,,2013-01-10 10:03:00,
2013-01-10 05:12:00,48.0,48.0,30.45,WNW,291,0.0,0.0,99,0.00,,,0.01,,2013-01-10 10:12:00,
2013-01-10 05:22:00,47.0,47.0,30.45,WNW,291,0.0,0.0,99,0.00,,,0.01,,2013-01-10 10:22:00,
2013-01-10 05:33:00,47.0,47.0,30.45,WNW,291,0.0,0.0,99,0.00,,,0.01,,2013-01-10 10:33:00,
2013-01-10 05:42:00,47.0,47.0,30.45,WNW,291,0.0,0.0,99,0.00,,,0.01,,2013-01-10 10:42:00,
2013-01-10 05:53:00,47.0,47.0,30.45,WNW,291,0.0,0.0,99,0.00,,,0.01,,2013-01-10 10:53:00,
2013-01-10 06:12:00,47.0,47.0,30.48,WNW,291,0.0,12.0,99,0.00,,,0.01,,2013-01-10 11:12:00,
2013-01-10 06:23:00,47.0,47.0,30.48,WNW,291,0.0,12.0,99,0.00,,,0.01,,2013-01-10 11:23:00,
2013-01-10 06:33:00,46.0,46.0,30.48,WNW,291,0.0,12.0,99,0.00,,,0.01,,2013-01-10 11:33:00,
2013-01-10 06:41:00,46.0,46.0,30.49,WNW,291,0.0,0.0,99,0.00,,,0.01,,2013-01-10 11:41:00,
2013-01-10 06:43:00,46.0,46.0,30.48,WNW,291,0.0,12.0,99,0.00,,,0.01,,2013-01-10 11:43:00,
2013-01-10 06:53:00,46.0,46.0,30.48,WNW,291,0.0,12.0,99,0.00,,,0.01,,2013-01-10 11:53:00,
2013-01-10 07:03:00,46.0,46.0,30.49,WNW,291,0.0,0.0,99,0.00,,,0.01,,2013-01-10 12:03:00,
2013-01-10 07:12:00,46.0,46.0,30.49,WNW,291,0.0,0.0,99,0.00,,,0.01,,2013-01-10 12:12:00,
2013-01-10 07:22:00,46.0,46.0,30.49,WNW,291,0.0,0.0,99,0.00,,,0.01,,2013-01-10 12:22:00,
2013-01-10 07:33:00,46.0,46.0,30.49,WNW,291,0.0,0.0,99,0.00,,,0.01,,2013-01-10 12:33:00,
2013-01-10 08:02:00,46.0,46.0,30.53,WNW,291,0.0,0.0,99,0.00,,,0.01,,2013-01-10 13:02:00,
2013-01-10 08:12:00,46.0,46.0,30.53,WNW,291,0.0,0.0,99,0.00,,,0.01,,2013-01-10 13:12:00,
2013-01-10 08:22:00,46.0,46.0,30.54,WNW,291,0.0,0.0,99,0.00,,,0.01,,2013-01-10 13:22:00,
2013-01-10 08:32:00,46.0,46.0,30.55,WNW,291,0.0,0.0,99,0.00,,,0.01,,2013-01-10 13:32:00,
2013-01-10 08:42:00,46.0,46.0,30.55,WNW,291,0.0,0.0,99,0.00,,,0.01,,2013-01-10 13:42:00,
2013-01-10 08:52:00,46.0,46.0,30.55,WNW,291,0.0,0.0,99,0.00,,,0.01,,2013-01-10 13:52:00,
2013-01-10 09:02:00,48.0,45.0,30.56,North,4,4.0,0.0,90,0.00,,,0.01,,2013-01-10 14:02:00,
2013-01-10 09:12:00,48.0,45.0,30.56,North,4,4.0,0.0,90,0.00,,,0.01,,2013-01-10 14:12:00,
2013-01-10 09:22:00,48.0,45.0,30.56,North,4,4.0,0.0,90,0.00,,,0.01,,2013-01-10 14:22:00,
2013-01-10 09:33:00,50.0,42.0,30.58,NNE,21,1.0,0.0,75,0.00,,,0.01,,2013-01-10 14:33:00,
2013-01-10 09:43:00,50.0,42.0,30.58,NNE,21,1.0,0.0,75,0.00,,,0.01,,2013-01-10 14:43:00,
2013-01-10 09:53:00,50.0,42.0,30.58,NNE,21,0.0,0.0,75,0.00,,,0.01,,2013-01-10 14:53:00,
2013-01-10 10:03:00,50.0,43.0,30.58,NNE,21,0.0,0.0,76,0.00,,,0.01,,2013-01-10 15:03:00,
2013-01-10 10:12:00,50.0,43.0,30.58,NNE,21,0.0,0.0,76,0.00,,,0.01,,2013-01-10 15:12:00,
2013-01-10 10:23:00,51.0,40.0,30.58,NNE,15,5.0,0.0,67,0.00,,,0.01,,2013-01-10 15:23:00,
2013-01-10 10:33:00,51.0,40.0,30.58,NNE,15,5.0,0.0,67,0.00,,,0.01,,2013-01-10 15:33:00,
2013-01-10 10:43:00,51.0,40.0,30.58,NNE,15,5.0,0.0,67,0.00,,,0.01,,2013-01-10 15:43:00,
2013-01-10 10:53:00,54.0,38.0,30.58,NE,36,5.0,0.0,55,0.00,,,0.01,,2013-01-10 15:53:00,
2013-01-10 11:03:00,54.0,38.0,30.58,NE,36,5.0,0.0,55,0.00,,,0.01,,2013-01-10 16:03:00,
2013-01-10 11:13:00,54.0,38.0,30.58,NE,36,5.0,0.0,55,0.00,,,0.01,,2013-01-10 16:13:00,
2013-01-10 11:23:00,55.0,40.0,30.57,NNE,12,0.0,12.0,56,0.00,,,0.01,,2013-01-10 16:23:00,
2013-01-10 11:33:00,54.0,38.0,30.57,NNE,23,2.0,0.0,55,0.00,,,0.01,,2013-01-10 16:33:00,
2013-01-10 11:43:00,54.0,38.0,30.57,NNE,23,2.0,0.0,55,0.00,,,0.01,,2013-01-10 16:43:00,
2013-01-10 11:53:00,55.0,38.0,30.55,ENE,73,7.0,12.0,52,0.00,,,0.01,,2013-01-10 16:53:00,
2013-01-10 12:03:00,55.0,38.0,30.55,ENE,73,7.0,12.0,52,0.00,,,0.01,,2013-01-10 17:03:00,
2013-01-10 12:12:00,55.0,38.0,30.55,ENE,73,7.0,12.0,52,0.00,,,0.01,,2013-01-10 17:12:00,
2013-01-10 12:22:00,55.0,38.0,30.54,North,9,1.0,0.0,53,0.00,,,0.01,,2013-01-10 17:22:00,
2013-01-10 12:33:00,54.0,36.0,30.53,NNE,19,6.0,0.0,50,0.00,,,0.01,,2013-01-10 17:33:00,
2013-01-10 12:43:00,54.0,36.0,30.53,NNE,19,6.0,0.0,50,0.00,,,0.01,,2013-01-10 17:43:00,
2013-01-10 12:53:00,55.0,37.0,30.53,NNE,32,6.0,0.0,50,0.00,,,0.01,,2013-01-10 17:53:00,
2013-01-10 13:03:00,55.0,37.0,30.53,NNE,32,6.0,0.0,50,0.00,,,0.01,,2013-01-10 18:03:00,
2013-01-10 13:12:00,56.0,37.0,30.52,East,82,5.0,0.0,49,0.00,,,0.01,,2013-01-10 18:12:00,
2013-01-10 13:23:00,56.0,37.0,30.52,East,82,5.0,0.0,49,0.00,,,0.01,,2013-01-10 18:23:00,
2013-01-10 13:33:00,56.0,37.0,30.52,East,82,5.0,0.0,49,0.00,,,0.01,,2013-01-10 18:33:00,
2013-01-10 13:43:00,54.0,35.0,30.51,ENE,64,4.0,12.0,49,0.00,,,0.01,,2013-01-10 18:43:00,
2013-01-10 13:52:00,54.0,35.0,30.51,ENE,64,4.0,12.0,49,0.00,,,0.01,,2013-01-10 18:52:00,
2013-01-10 14:03:00,54.0,35.0,30.51,ENE,64,4.0,12.0,49,0.00,,,0.01,,2013-01-10 19:03:00,
2013-01-10 14:13:00,54.0,35.0,30.51,ENE,64,4.0,12.0,49,0.00,,,0.01,,2013-01-10 19:13:00,
2013-01-10 14:23:00,54.0,35.0,30.51,ENE,64,4.0,12.0,49,0.00,,,0.01,,2013-01-10 19:23:00,
2013-01-10 14:33:00,54.0,35.0,30.51,ENE,64,4.0,12.0,49,0.00,,,0.01,,2013-01-10 19:33:00,
2013-01-10 14:44:00,54.0,35.0,30.51,NNE,18,1.0,0.0,49,0.00,,,0.01,,2013-01-10 19:44:00,
2013-01-10 14:53:00,54.0,35.0,30.51,NNE,18,1.0,0.0,49,0.00,,,0.01,,2013-01-10 19:53:00,
2013-01-10 15:03:00,54.0,35.0,30.51,NNE,25,0.0,12.0,48,0.00,,,0.01,,2013-01-10 20:03:00,
2013-01-10 15:13:00,54.0,35.0,30.51,NNE,25,0.0,12.0,48,0.00,,,0.01,,2013-01-10 20:13:00,
2013-01-10 15:24:00,54.0,35.0,30.51,NNE,25,0.0,12.0,48,0.00,,,0.01,,2013-01-10 20:24:00,
2013-01-10 15:33:00,54.0,35.0,30.51,NNE,25,0.0,12.0,48,0.00,,,0.01,,2013-01-10 20:33:00,
2013-01-10 15:43:00,54.0,35.0,30.51,NNE,25,0.0,12.0,48,0.00,,,0.01,,2013-01-10 20:43:00,
2013-01-10 15:53:00,53.0,34.0,30.52,ENE,75,2.0,0.0,48,0.00,,,0.01,,2013-01-10 20:53:00,
2013-01-10 16:04:00,53.0,34.0,30.52,NNE,14,2.0,0.0,48,0.00,,,0.01,,2013-01-10 21:04:00,
2013-01-10 16:13:00,53.0,34.0,30.52,NNE,14,2.0,0.0,48,0.00,,,0.01,,2013-01-10 21:13:00,
2013-01-10 16:23:00,53.0,34.0,30.52,NNE,14,2.0,0.0,48,0.00,,,0.01,,2013-01-10 21:23:00,
2013-01-10 16:33:00,52.0,34.0,30.52,North,351,0.0,12.0,50,0.00,,,0.01,,2013-01-10 21:33:00,
2013-01-10 16:43:00,52.0,34.0,30.52,North,351,0.0,12.0,50,0.00,,,0.01,,2013-01-10 21:43:00,
2013-01-10 16:53:00,52.0,34.0,30.52,North,351,0.0,0.0,50,0.00,,,0.01,,2013-01-10 21:53:00,
2013-01-10 17:04:00,52.0,34.0,30.52,North,351,0.0,0.0,50,0.00,,,0.01,,2013-01-10 22:04:00,
2013-01-10 17:12:00,51.0,33.0,30.50,North,351,0.0,0.0,49,0.00,,,0.01,,2013-01-10 22:12:00,
2013-01-10 17:26:00,51.0,33.0,30.50,North,351,0.0,0.0,49,0.00,,,0.01,,2013-01-10 22:26:00,
2013-01-10 17:34:00,51.0,33.0,30.50,North,351,0.0,0.0,49,0.00,,,0.01,,2013-01-10 22:34:00,
2013-01-10 17:43:00,51.0,33.0,30.50,North,351,0.0,0.0,49,0.00,,,0.01,,2013-01-10 22:43:00,
2013-01-10 18:03:00,49.0,36.0,30.51,North,351,0.0,12.0,60,0.00,,,0.00,,2013-01-10 23:03:00,
2013-01-10 18:13:00,49.0,37.0,30.51,North,351,0.0,0.0,64,0.00,,,0.00,,2013-01-10 23:13:00,
2013-01-10 18:23:00,49.0,37.0,30.51,North,351,0.0,0.0,64,0.00,,,0.00,,2013-01-10 23:23:00,
2013-01-10 18:33:00,48.0,36.0,30.51,North,351,0.0,12.0,62,0.00,,,0.00,,2013-01-10 23:33:00,
2013-01-10 18:43:00,48.0,36.0,30.51,North,351,0.0,12.0,62,0.00,,,0.00,,2013-01-10 23:43:00,
2013-01-10 18:53:00,48.0,36.0,30.50,North,351,0.0,0.0,64,0.00,,,0.00,,2013-01-10 23:53:00,
2013-01-10 19:03:00,48.0,36.0,30.50,North,351,0.0,0.0,64,0.00,,,0.00,,2013-01-11 00:03:00,
2013-01-10 19:13:00,47.0,37.0,30.51,North,351,0.0,0.0,67,0.00,,,0.00,,2013-01-11 00:13:00,
2013-01-10 19:23:00,47.0,37.0,30.51,North,351,0.0,0.0,67,0.00,,,0.00,,2013-01-11 00:23:00,
2013-01-10 19:32:00,46.0,37.0,30.51,North,351,0.0,0.0,72,0.00,,,0.00,,2013-01-11 00:32:00,
2013-01-10 19:33:00,47.0,38.0,30.51,North,351,0.0,0.0,70,0.00,,,0.00,,2013-01-11 00:33:00,
2013-01-10 19:43:00,47.0,38.0,30.51,North,351,0.0,0.0,70,0.00,,,0.00,,2013-01-11 00:43:00,
2013-01-10 19:52:00,46.0,37.0,30.51,North,351,0.0,0.0,72,0.00,,,0.00,,2013-01-11 00:52:00,
2013-01-10 20:03:00,46.0,37.0,30.51,North,351,0.0,0.0,72,0.00,,,0.00,,2013-01-11 01:03:00,
2013-01-10 20:13:00,46.0,37.0,30.51,North,351,0.0,0.0,72,0.00,,,0.00,,2013-01-11 01:13:00,
2013-01-10 20:23:00,46.0,37.0,30.51,North,351,0.0,0.0,72,0.00,,,0.00,,2013-01-11 01:23:00,
2013-01-10 20:41:00,44.0,38.0,30.53,North,351,0.0,0.0,78,0.00,,,0.00,,2013-01-11 01:41:00,
2013-01-10 21:03:00,44.0,38.0,30.53,North,351,0.0,0.0,78,0.00,,,0.00,,2013-01-11 02:03:00,
2013-01-10 21:13:00,44.0,38.0,30.53,North,351,0.0,0.0,78,0.00,,,0.00,,2013-01-11 02:13:00,
2013-01-10 21:23:00,44.0,38.0,30.53,North,351,0.0,0.0,78,0.00,,,0.00,,2013-01-11 02:23:00,
2013-01-10 21:33:00,44.0,38.0,30.53,North,351,0.0,0.0,78,0.00,,,0.00,,2013-01-11 02:33:00,
2013-01-10 22:03:00,42.0,37.0,30.52,North,351,0.0,0.0,83,0.00,,,0.00,,2013-01-11 03:03:00,
2013-01-10 22:13:00,42.0,37.0,30.52,North,351,0.0,0.0,83,0.00,,,0.00,,2013-01-11 03:13:00,
2013-01-10 22:23:00,42.0,37.0,30.52,North,351,0.0,0.0,83,0.00,,,0.00,,2013-01-11 03:23:00,
2013-01-10 22:33:00,40.0,36.0,30.52,North,351,0.0,0.0,87,0.00,,,0.00,,2013-01-11 03:33:00,
2013-01-10 22:43:00,40.0,36.0,30.52,North,351,0.0,0.0,87,0.00,,,0.00,,2013-01-11 03:43:00,
2013-01-10 22:53:00,40.0,36.0,30.52,North,351,0.0,0.0,87,0.00,,,0.00,,2013-01-11 03:53:00,
2013-01-10 23:02:00,40.0,36.0,30.52,North,351,0.0,0.0,87,0.00,,,0.00,,2013-01-11 04:02:00,
2013-01-10 23:12:00,40.0,37.0,30.53,North,351,0.0,0.0,89,0.00,,,0.00,,2013-01-11 04:12:00,
2013-01-10 23:23:00,40.0,37.0,30.53,North,351,0.0,0.0,89,0.00,,,0.00,,2013-01-11 04:23:00,
2013-01-10 23:33:00,40.0,37.0,30.53,North,351,0.0,0.0,89,0.00,,,0.00,,2013-01-11 04:33:00,
2013-01-10 23:43:00,40.0,37.0,30.53,North,351,0.0,0.0,89,0.00,,,0.00,,2013-01-11 04:43:00,
2013-01-10 23:52:00,40.0,37.0,30.53,North,351,0.0,0.0,89,0.00,,,0.00,,2013-01-11 04:52:00,